Time;durP1;ratioP1;P1;durP2;ratioP2;P2;SDS_P1;SDS_P2;PMS_P1;PMS_P2;Temp;Humidity;BMP_temperature;BMP_pressure;BME280_temperature;BME280_humidity;BME280_pressure;Samples;Min_cycle;Max_cycle;Signal;HPM_P1;HPM_P2
2023/04/17 00:02:01;;;;;;;33.67;17.90;;;;;;;9.17;100.00;99710.69;5005459;28;20085;-72
2023/04/17 00:04:26;;;;;;;26.23;17.02;;;;;;;9.71;100.00;99808.13;5007660;28;20042;-72
2023/04/17 00:06:52;;;;;;;36.95;21.35;;;;;;;9.85;100.00;99831.63;5020237;28;20076;-73
2023/04/17 00:09:18;;;;;;;28.30;18.42;;;;;;;9.84;100.00;99832.53;5007619;28;20054;-72
2023/04/17 00:11:43;;;;;;;28.73;19.15;;;;;;;9.86;100.00;99833.38;5011548;28;20036;-72
2023/04/17 00:14:09;;;;;;;26.50;16.40;;;;;;;9.34;100.00;99747.25;5011003;28;20157;-71
2023/04/17 00:16:34;;;;;;;23.77;16.80;;;;;;;10.04;100.00;99861.19;5010712;28;20042;-73
2023/04/17 00:19:00;;;;;;;28.77;16.90;;;;;;;9.92;100.00;99852.53;5003651;28;20129;-74
2023/04/17 00:21:28;;;;;;;29.48;17.13;;;;;;;9.77;100.00;99822.97;4996918;28;20045;-72
2023/04/17 00:23:54;;;;;;;35.15;15.88;;;;;;;10.25;100.00;99883.78;5010721;28;20030;-72
2023/04/17 00:26:20;;;;;;;27.00;16.77;;;;;;;8.81;100.00;99668.16;5011386;28;20040;-73
2023/04/17 00:28:47;;;;;;;36.17;17.08;;;;;;;10.15;100.00;99886.47;5010652;28;20380;-72
2023/04/17 00:31:13;;;;;;;30.38;17.25;;;;;;;10.12;100.00;99888.25;5010545;28;20064;-72
2023/04/17 00:33:38;;;;;;;28.60;16.00;;;;;;;10.04;100.00;99869.06;5005600;28;20436;-72
2023/04/17 00:36:04;;;;;;;33.63;15.45;;;;;;;9.61;100.00;99809.06;5014029;28;20116;-71
2023/04/17 00:38:30;;;;;;;28.27;16.60;;;;;;;9.40;100.00;99778.66;5015511;28;20060;-73
2023/04/17 00:40:55;;;;;;;22.73;15.15;;;;;;;9.92;100.00;99863.00;5010434;28;20784;-72
2023/04/17 00:43:21;;;;;;;32.15;14.63;;;;;;;9.34;100.00;99762.97;5009102;28;20399;-71
2023/04/17 00:45:47;;;;;;;24.95;14.48;;;;;;;10.12;100.00;99885.63;5010332;28;20046;-73
2023/04/17 00:48:14;;;;;;;23.02;14.38;;;;;;;10.14;100.00;99886.50;5009328;28;20121;-74
2023/04/17 00:50:41;;;;;;;23.17;13.50;;;;;;;9.83;100.00;99849.09;4991411;28;20022;-72
2023/04/17 00:53:06;;;;;;;28.42;13.88;;;;;;;9.85;100.00;99861.31;4989214;28;20811;-72
2023/04/17 00:55:34;;;;;;;24.38;15.48;;;;;;;9.17;100.00;99744.72;4990982;28;20137;-73
2023/04/17 00:58:00;;;;;;;31.60;15.20;;;;;;;9.90;100.00;99883.16;5008117;28;20523;-74
2023/04/17 01:00:26;;;;;;;20.45;14.10;;;;;;;10.07;100.00;99883.03;5008522;28;20057;-72
2023/04/17 01:02:52;;;;;;;24.23;16.95;;;;;;;9.91;100.00;99873.53;5010162;28;20759;-73
2023/04/17 01:05:17;;;;;;;26.02;17.05;;;;;;;9.13;100.00;99748.22;5013655;28;20065;-72
2023/04/17 01:07:44;;;;;;;25.98;15.80;;;;;;;9.00;100.00;99734.34;5019161;28;20038;-72
2023/04/17 01:10:10;;;;;;;21.73;17.13;;;;;;;9.29;100.00;99768.22;5008652;28;20038;-73
2023/04/17 01:12:35;;;;;;;28.20;16.40;;;;;;;9.91;100.00;99881.38;5008102;28;20053;-72
2023/04/17 01:15:01;;;;;;;24.90;17.85;;;;;;;9.23;100.00;99765.66;5010108;28;20038;-72
2023/04/17 01:17:27;;;;;;;23.25;19.85;;;;;;;9.82;100.00;99879.69;5010277;28;20038;-72
2023/04/17 01:19:53;;;;;;;31.23;18.48;;;;;;;10.06;100.00;99891.75;4995736;28;20506;-72
2023/04/17 01:22:19;;;;;;;26.77;18.35;;;;;;;9.22;100.00;99777.84;5033545;28;20216;-72
2023/04/17 01:24:45;;;;;;;36.97;21.90;;;;;;;9.12;100.00;99764.81;5009810;28;20042;-72
2023/04/17 01:27:12;;;;;;;28.15;17.23;;;;;;;9.24;100.00;99773.47;5009528;28;20558;-72
2023/04/17 01:29:38;;;;;;;27.83;17.40;;;;;;;10.03;100.00;99910.13;5005815;28;20128;-72
2023/04/17 01:32:04;;;;;;;34.30;21.10;;;;;;;9.93;100.00;99908.47;4990048;28;20825;-72
2023/04/17 01:34:30;;;;;;;27.98;19.10;;;;;;;9.90;100.00;99898.88;4990447;28;20081;-72
2023/04/17 01:36:55;;;;;;;28.13;17.80;;;;;;;9.98;100.00;99901.44;5024703;28;20528;-72
2023/04/17 01:39:21;;;;;;;30.85;19.38;;;;;;;9.68;100.00;99823.88;5009769;28;20042;-73
2023/04/17 01:41:46;;;;;;;28.65;17.77;;;;;;;9.50;100.00;99788.16;5010429;28;20509;-72
2023/04/17 01:44:12;;;;;;;29.08;17.42;;;;;;;9.92;100.00;99894.47;5009666;28;20061;-72
2023/04/17 01:46:37;;;;;;;29.80;18.48;;;;;;;9.91;100.00;99894.50;5009331;28;20800;-73
2023/04/17 01:49:02;;;;;;;34.95;20.02;;;;;;;9.03;100.00;99737.81;5001972;28;20121;-72
2023/04/17 01:51:28;;;;;;;28.48;17.35;;;;;;;9.12;100.00;99734.28;4991924;28;20049;-72
2023/04/17 01:53:53;;;;;;;28.30;19.63;;;;;;;9.00;100.00;99734.34;5007419;28;20099;-72
2023/04/17 01:56:19;;;;;;;30.73;17.30;;;;;;;9.92;100.00;99878.75;5010251;28;20037;-72
2023/04/17 01:58:44;;;;;;;32.50;17.98;;;;;;;9.56;100.00;99829.19;5009412;28;20057;-73
2023/04/17 02:01:10;;;;;;;26.52;18.35;;;;;;;9.86;100.00;99901.50;5009227;28;20103;-73
2023/04/17 02:03:35;;;;;;;28.58;18.50;;;;;;;9.84;100.00;99874.44;5008623;28;20057;-72
2023/04/17 02:06:01;;;;;;;33.53;16.92;;;;;;;9.66;100.00;99847.44;5017637;28;20374;-73
2023/04/17 02:08:28;;;;;;;33.33;17.75;;;;;;;8.51;100.00;99648.25;5011024;28;20037;-73
2023/04/17 02:10:54;;;;;;;34.20;18.35;;;;;;;9.87;100.00;99871.78;5008857;28;20045;-73
2023/04/17 02:13:19;;;;;;;27.58;16.75;;;;;;;9.57;100.00;99829.16;5008800;28;20478;-73
2023/04/17 02:15:45;;;;;;;28.13;16.85;;;;;;;9.88;100.00;99876.16;5008666;28;20054;-73
2023/04/17 02:18:10;;;;;;;27.85;14.85;;;;;;;9.76;100.00;99856.13;5008266;28;20038;-73
2023/04/17 02:20:36;;;;;;;32.35;18.70;;;;;;;9.55;100.00;99814.34;4990106;28;20038;-73
2023/04/17 02:23:03;;;;;;;33.65;15.85;;;;;;;9.75;100.00;99885.84;5007086;28;20433;-72
2023/04/17 02:25:29;;;;;;;25.60;15.02;;;;;;;9.77;100.00;99870.97;5008498;28;20092;-73
2023/04/17 02:27:55;;;;;;;30.33;16.63;;;;;;;9.84;100.00;99864.81;5008486;28;20053;-73
2023/04/17 02:30:22;;;;;;;28.13;15.55;;;;;;;9.72;100.00;99888.47;5008819;28;20093;-73
2023/04/17 02:32:51;;;;;;;22.38;14.65;;;;;;;9.51;100.00;99831.84;5008231;28;20536;-72
2023/04/17 02:35:21;;;;;;;27.42;13.85;;;;;;;9.06;100.00;99758.75;5014336;28;20021;-73
2023/04/17 02:37:46;;;;;;;24.63;14.20;;;;;;;9.04;100.00;99760.50;5018646;28;20104;-72
2023/04/17 02:40:12;;;;;;;23.85;15.70;;;;;;;8.73;100.00;99681.25;5008057;28;20463;-73
2023/04/17 02:42:38;;;;;;;27.30;16.15;;;;;;;9.62;100.00;99864.09;5008247;28;20129;-72
2023/04/17 02:45:04;;;;;;;28.42;12.88;;;;;;;9.73;100.00;99867.50;5008104;28;20037;-72
2023/04/17 02:47:29;;;;;;;20.10;12.38;;;;;;;9.66;100.00;99871.03;5008533;28;20042;-72
2023/04/17 02:49:55;;;;;;;31.65;14.57;;;;;;;9.58;100.00;99864.09;5006806;28;20077;-72
2023/04/17 02:52:22;;;;;;;25.90;13.07;;;;;;;8.79;100.00;99714.38;5008183;28;20049;-73
2023/04/17 02:54:47;;;;;;;20.30;11.50;;;;;;;8.79;100.00;99709.16;5008257;28;20458;-72
2023/04/17 02:57:12;;;;;;;26.50;15.63;;;;;;;9.48;100.00;99819.63;5008210;28;20065;-72
2023/04/17 02:59:38;;;;;;;33.15;14.93;;;;;;;9.71;100.00;99850.91;5008604;28;20037;-72
2023/04/17 03:02:04;;;;;;;26.65;13.80;;;;;;;9.50;100.00;99837.94;5007453;28;20145;-72
2023/04/17 03:04:29;;;;;;;28.45;15.35;;;;;;;9.62;100.00;99860.56;5008466;28;20049;-72
2023/04/17 03:06:55;;;;;;;22.73;15.00;;;;;;;8.77;100.00;99708.28;5017986;28;20584;-75
2023/04/17 03:09:21;;;;;;;24.75;15.13;;;;;;;9.46;100.00;99841.47;5007928;28;20042;-72
2023/04/17 03:11:47;;;;;;;32.55;14.43;;;;;;;8.61;100.00;99703.09;5007921;28;20092;-72
2023/04/17 03:14:13;;;;;;;21.75;15.98;;;;;;;9.60;100.00;99860.59;5007628;28;20049;-72
2023/04/17 03:16:39;;;;;;;32.13;17.65;;;;;;;9.54;100.00;99850.13;5007736;28;20042;-73
2023/04/17 03:19:04;;;;;;;29.70;15.77;;;;;;;8.64;100.00;99704.84;4999534;28;20045;-71
2023/04/17 03:21:30;;;;;;;24.70;15.05;;;;;;;8.82;100.00;99738.75;4994568;28;20462;-73
2023/04/17 03:23:56;;;;;;;27.58;17.77;;;;;;;9.42;100.00;99842.34;5007616;28;20129;-74
2023/04/17 03:26:21;;;;;;;38.90;16.42;;;;;;;9.50;100.00;99851.94;5008224;28;20510;-73
2023/04/17 03:28:47;;;;;;;36.78;16.95;;;;;;;8.90;100.00;99751.84;5005961;28;20038;-73
2023/04/17 03:31:12;;;;;;;32.35;19.90;;;;;;;9.23;100.00;99810.16;5007604;28;20486;-72
2023/04/17 03:33:38;;;;;;;31.25;17.85;;;;;;;9.53;100.00;99858.88;5007725;28;20375;-73
2023/04/17 03:36:04;;;;;;;35.85;18.77;;;;;;;8.73;100.00;99712.63;5007183;28;20038;-73
2023/04/17 03:38:30;;;;;;;22.02;18.15;;;;;;;9.18;100.00;99799.69;5007508;28;20768;-72
2023/04/17 03:40:56;;;;;;;26.17;17.95;;;;;;;8.86;100.00;99716.09;5005670;28;20069;-72
2023/04/17 03:43:21;;;;;;;34.80;21.80;;;;;;;9.44;100.00;99835.38;5007011;28;20037;-73
2023/04/17 03:45:47;;;;;;;28.15;20.70;;;;;;;8.71;100.00;99734.44;5010162;28;20066;-72
2023/04/17 03:48:12;;;;;;;35.78;21.40;;;;;;;8.95;100.00;99755.31;5011613;28;20462;-73
2023/04/17 03:50:38;;;;;;;34.78;22.38;;;;;;;9.34;100.00;99826.69;4992599;28;20030;-71
2023/04/17 03:53:03;;;;;;;43.25;23.30;;;;;;;9.75;100.00;99874.50;4991995;28;20069;-72
2023/04/17 03:55:29;;;;;;;36.45;21.35;;;;;;;8.66;100.00;99724.00;4991664;28;20061;-72
2023/04/17 03:57:55;;;;;;;39.47;23.10;;;;;;;9.24;100.00;99820.59;4991616;28;20046;-73
2023/04/17 04:00:20;;;;;;;33.08;24.25;;;;;;;9.38;100.00;99845.84;4991843;28;20039;-71
2023/04/17 04:02:46;;;;;;;30.02;23.15;;;;;;;8.83;100.00;99765.81;4991943;28;20105;-72
2023/04/17 04:05:12;;;;;;;35.05;21.80;;;;;;;8.84;100.00;99786.72;5033494;28;20044;-72
2023/04/17 04:07:37;;;;;;;44.42;25.13;;;;;;;9.32;100.00;99848.47;5020943;28;20046;-72
2023/04/17 04:10:03;;;;;;;40.17;24.35;;;;;;;9.51;100.00;99871.97;5009375;28;20038;-72
2023/04/17 04:12:28;;;;;;;50.47;22.30;;;;;;;9.08;100.00;99798.88;5010776;28;20042;-73
2023/04/17 04:14:54;;;;;;;32.05;20.10;;;;;;;9.48;100.00;99885.09;5011187;28;20034;-73
2023/04/17 04:17:20;;;;;;;31.10;20.58;;;;;;;9.20;100.00;99811.03;5011488;28;20454;-72
2023/04/17 04:19:46;;;;;;;35.35;20.75;;;;;;;8.95;100.00;99793.69;4998665;28;20513;-73
2023/04/17 04:22:12;;;;;;;30.88;19.63;;;;;;;8.75;100.00;99751.88;5034756;28;20406;-74
2023/04/17 04:24:39;;;;;;;32.28;19.33;;;;;;;8.69;100.00;99771.09;5010583;28;20050;-72
2023/04/17 04:27:05;;;;;;;31.50;18.10;;;;;;;8.98;100.00;99804.13;4994593;28;20038;-74
2023/04/17 04:29:31;;;;;;;32.45;17.70;;;;;;;8.95;100.00;99797.16;5011680;28;20026;-72
2023/04/17 04:31:57;;;;;;;28.73;18.05;;;;;;;8.89;100.00;99789.31;5011861;28;20046;-74
2023/04/17 04:34:24;;;;;;;28.35;18.65;;;;;;;9.32;100.00;99878.19;5011888;28;20112;-73
2023/04/17 04:36:52;;;;;;;41.95;19.80;;;;;;;8.82;100.00;99758.81;5028594;28;20034;-73
2023/04/17 04:39:19;;;;;;;28.60;18.60;;;;;;;8.97;100.00;99774.47;5011879;28;20041;-73
2023/04/17 04:41:51;;;;;;;43.97;17.58;;;;;;;9.72;100.00;99878.88;5010527;28;20045;-73
2023/04/17 04:44:17;;;;;;;30.42;17.40;;;;;;;8.94;100.00;99784.06;5012793;28;20042;-73
2023/04/17 04:46:43;;;;;;;25.15;16.85;;;;;;;8.82;100.00;99770.16;5011515;28;20041;-73
2023/04/17 04:49:08;;;;;;;23.33;17.33;;;;;;;9.12;100.00;99793.63;5003077;28;20360;-75
2023/04/17 04:51:35;;;;;;;30.65;16.67;;;;;;;9.59;100.00;99879.78;4991250;28;20053;-72
2023/04/17 04:54:01;;;;;;;19.10;15.65;;;;;;;9.13;100.00;99782.25;4989162;28;20501;-72
2023/04/17 04:56:27;;;;;;;33.67;18.23;;;;;;;9.57;100.00;99878.06;4989416;28;20026;-72
2023/04/17 04:58:54;;;;;;;29.58;16.45;;;;;;;9.61;100.00;99879.81;4991013;28;20053;-74
2023/04/17 05:01:19;;;;;;;30.65;17.35;;;;;;;9.61;100.00;99903.38;5021746;28;20053;-72
2023/04/17 05:03:45;;;;;;;25.73;16.85;;;;;;;9.37;100.00;99837.13;4989998;28;20712;-72
2023/04/17 05:06:12;;;;;;;34.53;17.17;;;;;;;9.54;100.00;99875.47;5016459;28;20041;-72
2023/04/17 05:08:38;;;;;;;23.02;17.27;;;;;;;9.46;100.00;99867.66;5012017;28;20140;-73
2023/04/17 05:11:04;;;;;;;36.22;19.08;;;;;;;9.32;100.00;99867.72;5009991;28;20126;-73
2023/04/17 05:13:29;;;;;;;33.55;18.70;;;;;;;9.35;100.00;99866.81;5009750;28;20409;-72
2023/04/17 05:15:55;;;;;;;35.65;18.60;;;;;;;9.33;100.00;99869.44;5009646;28;20110;-73
2023/04/17 05:18:21;;;;;;;29.92;18.60;;;;;;;8.87;100.00;99784.13;5009345;28;20048;-74
2023/04/17 05:20:47;;;;;;;29.98;19.55;;;;;;;8.83;100.00;99766.69;4989607;28;20034;-72
2023/04/17 05:23:12;;;;;;;31.63;18.77;;;;;;;8.73;100.00;99785.88;5009882;28;20132;-72
2023/04/17 05:25:39;;;;;;;42.10;19.75;;;;;;;8.65;100.00;99756.28;5009237;28;20052;-74
2023/04/17 05:28:05;;;;;;;34.80;19.77;;;;;;;8.36;100.00;99732.78;5009544;28;20494;-73
2023/04/17 05:30:30;;;;;;;43.45;20.55;;;;;;;9.40;100.00;99883.38;5007830;28;20163;-74
2023/04/17 05:32:57;;;;;;;31.10;19.05;;;;;;;9.41;100.00;99896.47;5009472;28;20038;-74
2023/04/17 05:35:23;;;;;;;39.15;19.27;;;;;;;8.99;100.00;99837.25;5010109;28;20030;-74
2023/04/17 05:37:48;;;;;;;40.47;21.73;;;;;;;8.64;100.00;99765.00;5008972;28;20573;-73
2023/04/17 05:40:14;;;;;;;26.45;19.48;;;;;;;8.44;100.00;99728.44;5009266;28;20050;-72
2023/04/17 05:42:39;;;;;;;37.47;19.95;;;;;;;9.46;100.00;99892.09;5009457;28;20089;-72
2023/04/17 05:45:05;;;;;;;23.50;17.77;;;;;;;9.40;100.00;99888.63;5009253;28;20033;-74
2023/04/17 05:47:31;;;;;;;43.78;20.45;;;;;;;8.80;100.00;99787.63;5009752;28;20045;-72
2023/04/17 05:49:57;;;;;;;40.33;21.80;;;;;;;9.38;100.00;99890.38;4995995;28;20038;-72
2023/04/17 05:52:23;;;;;;;32.28;19.88;;;;;;;9.48;100.00;99884.22;4989862;28;20049;-73
2023/04/17 05:54:49;;;;;;;44.72;19.27;;;;;;;9.51;100.00;99926.13;4989535;28;20146;-72
2023/04/17 05:57:15;;;;;;;34.45;18.95;;;;;;;8.62;100.00;99766.75;4989428;28;20046;-72
2023/04/17 05:59:42;;;;;;;36.80;19.75;;;;;;;9.57;100.00;99906.88;4990488;28;20074;-73
2023/04/17 06:02:08;;;;;;;29.98;17.73;;;;;;;8.74;100.00;99751.00;4989580;28;20469;-74
2023/04/17 06:04:33;;;;;;;32.22;16.27;;;;;;;8.83;100.00;99781.50;5023312;28;20145;-72
2023/04/17 06:07:01;;;;;;;36.92;18.13;;;;;;;9.29;100.00;99902.63;5020171;28;20052;-72
2023/04/17 06:09:28;;;;;;;26.30;17.25;;;;;;;9.51;100.00;99931.34;5009204;28;20046;-71
2023/04/17 06:11:53;;;;;;;28.67;16.35;;;;;;;8.68;100.00;99799.84;5009145;28;20121;-74
2023/04/17 06:14:19;;;;;;;31.65;18.40;;;;;;;9.58;100.00;99921.72;5009268;28;20125;-74
2023/04/17 06:16:44;;;;;;;31.65;16.90;;;;;;;9.14;100.00;99860.78;5008723;28;20046;-73
2023/04/17 06:19:09;;;;;;;30.40;15.30;;;;;;;9.45;100.00;99900.81;5001967;28;20081;-73
2023/04/17 06:21:35;;;;;;;30.15;16.42;;;;;;;9.02;100.00;99814.59;4995960;28;20049;-73
2023/04/17 06:24:01;;;;;;;24.90;16.23;;;;;;;9.54;100.00;99946.19;5008791;28;20050;-74
2023/04/17 06:26:26;;;;;;;27.67;16.88;;;;;;;8.94;100.00;99810.25;5009173;28;20049;-75
2023/04/17 06:28:51;;;;;;;23.75;15.25;;;;;;;9.17;100.00;99846.81;5008603;28;20045;-72
2023/04/17 06:31:17;;;;;;;24.67;15.13;;;;;;;9.14;100.00;99849.44;5008498;28;20045;-72
2023/04/17 06:33:42;;;;;;;32.30;15.93;;;;;;;9.95;100.00;99964.38;5006862;28;20062;-71
2023/04/17 06:36:08;;;;;;;17.88;13.20;;;;;;;9.16;100.00;99827.63;5020754;28;20049;-74
2023/04/17 06:38:33;;;;;;;33.53;17.13;;;;;;;9.81;100.00;99943.47;5029131;28;20076;-74
2023/04/17 06:40:59;;;;;;;29.98;14.20;;;;;;;9.42;100.00;99869.41;5027984;28;20045;-73
2023/04/17 06:43:24;;;;;;;27.80;13.38;;;;;;;9.96;100.00;99988.81;5028422;28;20045;-74
2023/04/17 06:45:50;;;;;;;22.08;13.27;;;;;;;8.93;100.00;99811.13;5028190;28;20049;-73
2023/04/17 06:48:15;;;;;;;19.70;12.85;;;;;;;9.84;100.00;99969.63;5017632;28;20042;-74
2023/04/17 06:50:41;;;;;;;28.75;13.18;;;;;;;9.87;100.00;99969.63;4989821;28;20391;-74
2023/04/17 06:53:06;;;;;;;25.95;12.93;;;;;;;9.98;100.00;99980.06;4988852;28;20466;-74
2023/04/17 06:55:32;;;;;;;29.23;12.38;;;;;;;8.97;100.00;99841.66;4988502;28;20085;-72
2023/04/17 06:57:57;;;;;;;22.75;13.02;;;;;;;10.00;100.00;99986.19;4988535;28;20418;-73
2023/04/17 07:00:23;;;;;;;31.60;14.60;;;;;;;9.43;100.00;99973.25;4988621;28;20058;-72
2023/04/17 07:02:49;;;;;;;18.17;12.05;;;;;;;9.30;100.00;99951.47;4988491;28;20054;-73
2023/04/17 07:05:15;;;;;;;24.67;14.02;;;;;;;9.89;100.00;99999.31;4999377;28;20481;-73
2023/04/17 07:07:40;;;;;;;22.50;13.45;;;;;;;9.92;100.00;100009.78;5008098;28;20062;-72
2023/04/17 07:10:06;;;;;;;22.02;14.40;;;;;;;9.98;100.00;100019.38;4988318;28;20050;-72
2023/04/17 07:12:32;;;;;;;29.83;13.18;;;;;;;9.97;100.00;100030.72;5006102;28;20049;-72
2023/04/17 07:14:58;;;;;;;33.20;15.48;;;;;;;9.20;100.00;99913.13;5007574;28;20066;-72
2023/04/17 07:17:24;;;;;;;25.40;14.38;;;;;;;9.28;100.00;99936.66;5008090;28;20061;-72
2023/04/17 07:19:49;;;;;;;24.27;13.15;;;;;;;10.03;100.00;100043.81;4994903;28;20046;-72
2023/04/17 07:22:15;;;;;;;20.45;13.93;;;;;;;10.12;100.00;100042.91;5005905;28;20057;-74
2023/04/17 07:24:40;;;;;;;34.58;15.52;;;;;;;9.93;100.00;100045.59;5007517;28;20545;-75
2023/04/17 07:27:06;;;;;;;26.50;15.05;;;;;;;9.83;100.00;100006.31;5007699;28;20120;-73
2023/04/17 07:29:32;;;;;;;22.40;13.75;;;;;;;9.84;100.00;100026.44;5008402;28;20063;-74
2023/04/17 07:31:57;;;;;;;22.48;13.95;;;;;;;9.56;100.00;99974.13;5007101;28;20136;-72
2023/04/17 07:34:29;;;;;;;18.95;12.73;;;;;;;10.09;100.00;100062.16;5007935;28;20553;-73
2023/04/17 07:36:55;;;;;;;23.83;13.40;;;;;;;10.22;100.00;100096.19;5023395;28;20073;-72
2023/04/17 07:39:21;;;;;;;26.80;13.27;;;;;;;10.03;100.00;100100.63;5005886;28;20057;-72
2023/04/17 07:41:48;;;;;;;20.08;12.23;;;;;;;9.68;100.00;100007.25;5007874;28;20485;-72
2023/04/17 07:44:13;;;;;;;27.30;11.85;;;;;;;10.17;100.00;100082.22;5007059;28;20080;-74
2023/04/17 07:46:40;;;;;;;17.58;10.80;;;;;;;10.30;100.00;100103.19;5006955;28;20081;-73
2023/04/17 07:49:05;;;;;;;23.05;11.90;;;;;;;10.39;100.00;100107.50;5001284;28;20038;-73
2023/04/17 07:51:31;;;;;;;23.58;11.32;;;;;;;9.72;100.00;100017.72;4987601;28;20054;-74
2023/04/17 07:53:57;;;;;;;21.33;11.52;;;;;;;10.33;100.00;100113.66;4987711;28;20423;-72
2023/04/17 07:56:23;;;;;;;20.27;9.30;;;;;;;10.17;100.00;100090.97;4988091;28;20057;-72
2023/04/17 07:58:50;;;;;;;15.98;10.45;;;;;;;10.43;100.00;100121.50;4987599;28;20057;-74
2023/04/17 08:01:16;;;;;;;26.40;10.95;;;;;;;10.33;100.00;100125.91;4987723;28;20046;-74
2023/04/17 08:03:43;;;;;;;20.48;9.90;;;;;;;10.29;100.00;100126.78;4999275;28;20505;-74
2023/04/17 08:06:10;;;;;;;22.73;12.65;;;;;;;9.64;100.00;100014.22;5018575;28;20107;-72
2023/04/17 08:08:36;;;;;;;27.95;13.73;;;;;;;10.24;100.00;100118.91;5009152;28;20022;-73
2023/04/17 08:11:02;;;;;;;32.78;15.75;;;;;;;10.21;100.00;100116.31;5006663;28;20435;-73
2023/04/17 08:13:31;;;;;;;16.92;13.23;;;;;;;9.47;100.00;99984.59;5006974;28;20457;-74
2023/04/17 08:15:56;;;;;;;20.20;13.63;;;;;;;9.06;100.00;99994.28;5006665;28;20072;-73
2023/04/17 08:18:22;;;;;;;21.35;13.32;;;;;;;9.34;100.00;99990.75;5005403;28;20560;-73
2023/04/17 08:20:47;;;;;;;21.38;14.38;;;;;;;9.21;100.00;99972.44;4987757;28;20125;-74
2023/04/17 08:23:13;;;;;;;21.50;15.07;;;;;;;8.87;100.00;99979.44;5007377;28;20117;-73
2023/04/17 08:25:38;;;;;;;28.38;16.83;;;;;;;9.96;100.00;100109.38;5006918;28;20092;-73
2023/04/17 08:28:04;;;;;;;23.65;16.40;;;;;;;9.83;100.00;100070.09;5006322;28;20045;-72
2023/04/17 08:30:29;;;;;;;23.73;17.50;;;;;;;9.62;100.00;100073.66;5007472;28;20046;-72
2023/04/17 08:32:56;;;;;;;26.70;17.58;;;;;;;9.21;100.00;99975.06;5010318;28;20409;-73
2023/04/17 08:35:22;;;;;;;24.35;16.65;;;;;;;9.20;100.00;99967.19;5015347;28;20389;-72
2023/04/17 08:37:47;;;;;;;24.15;18.08;;;;;;;9.93;100.00;100077.06;5020460;28;20053;-73
2023/04/17 08:40:13;;;;;;;29.65;18.45;;;;;;;9.55;100.00;100052.69;5010503;28;20049;-73
2023/04/17 08:42:41;;;;;;;24.08;17.48;;;;;;;9.88;100.00;100070.97;5010559;28;20038;-72
2023/04/17 08:45:09;;;;;;;30.00;18.60;;;;;;;9.80;100.00;100069.22;5010424;28;20092;-72
2023/04/17 08:47:44;;;;;;;29.48;19.02;;;;;;;10.00;100.00;100087.53;5009984;28;20038;-73
2023/04/17 08:50:15;;;;;;;38.03;19.15;;;;;;;9.76;100.00;100063.09;4995910;28;20049;-72
2023/04/17 08:52:46;;;;;;;29.80;18.63;;;;;;;9.68;100.00;100044.78;4990185;28;20245;-72
2023/04/17 08:55:14;;;;;;;32.42;19.00;;;;;;;10.13;100.00;100090.09;4990567;28;20494;-73
2023/04/17 08:57:57;;;;;;;30.77;19.45;;;;;;;10.09;100.00;100097.97;4990342;28;20061;-72
2023/04/17 09:00:27;;;;;;;31.33;18.45;;;;;;;9.77;100.00;100104.19;5006073;28;20049;-73
2023/04/17 09:02:54;;;;;;;30.90;17.42;;;;;;;9.76;100.00;100057.00;5009891;28;20081;-73
2023/04/17 09:05:22;;;;;;;31.30;19.27;;;;;;;9.59;100.00;100042.19;5014039;28;20064;-73
2023/04/17 09:08:06;;;;;;;32.08;22.23;;;;;;;9.88;100.00;100084.06;5018030;28;20379;-73
2023/04/17 09:10:37;;;;;;;34.15;19.45;;;;;;;10.05;100.00;100072.66;5007998;28;20056;-72
2023/04/17 09:13:03;;;;;;;36.85;19.67;;;;;;;9.27;100.00;99963.69;5009146;28;20109;-74
2023/04/17 09:15:28;;;;;;;29.50;19.00;;;;;;;10.14;100.00;100085.75;5009714;28;20593;-73
2023/04/17 09:17:54;;;;;;;29.38;20.15;;;;;;;10.03;100.00;100088.38;5009340;28;20462;-72
2023/04/17 09:20:19;;;;;;;30.90;20.60;;;;;;;9.56;100.00;99989.81;4994461;28;20038;-73
2023/04/17 09:22:46;;;;;;;44.38;24.10;;;;;;;10.01;100.00;100103.25;5006046;28;20520;-72
2023/04/17 09:25:18;;;;;;;40.25;24.50;;;;;;;10.02;100.00;100083.13;5007620;28;20045;-73
2023/04/17 09:27:45;;;;;;;43.83;24.77;;;;;;;9.26;100.00;99975.06;5009887;28;20849;-73
2023/04/17 09:30:12;;;;;;;32.47;19.42;;;;;;;9.48;100.00;99994.19;5009596;28;20108;-72
2023/04/17 09:32:39;;;;;;;45.65;21.58;;;;;;;9.51;100.00;99995.06;5008725;28;20454;-72
2023/04/17 09:35:05;;;;;;;25.58;18.60;;;;;;;9.98;100.00;100081.44;5009135;28;20048;-74
2023/04/17 09:37:49;;;;;;;44.33;25.27;;;;;;;9.58;100.00;100078.88;5009136;28;20084;-73
2023/04/17 09:40:17;;;;;;;36.13;23.40;;;;;;;9.71;100.00;100080.59;5007584;28;20190;-71
2023/04/17 09:43:00;;;;;;;33.20;22.60;;;;;;;8.84;100.00;99901.81;5007714;28;20152;-72
2023/04/17 09:45:38;;;;;;;31.90;22.80;;;;;;;8.75;100.00;99941.06;5009145;28;20048;-72
2023/04/17 09:48:06;;;;;;;34.28;23.98;;;;;;;9.43;100.00;100051.81;5008637;28;20505;-72
2023/04/17 09:50:32;;;;;;;32.70;22.27;;;;;;;9.06;100.00;99938.44;4992613;28;20026;-72
2023/04/17 09:52:58;;;;;;;46.28;23.38;;;;;;;8.88;100.00;99921.03;4989413;28;20414;-72
2023/04/17 09:55:25;;;;;;;27.90;20.55;;;;;;;8.75;100.00;99933.22;4994981;28;20093;-72
2023/04/17 09:57:53;;;;;;;41.00;23.48;;;;;;;8.52;100.00;99974.19;5008690;28;20573;-72
2023/04/17 10:00:22;;;;;;;29.08;23.08;;;;;;;9.21;100.00;100029.16;5008939;28;20049;-72
2023/04/17 10:02:50;;;;;;;33.30;23.88;;;;;;;8.69;100.00;99937.63;5008363;28;20073;-73
2023/04/17 10:05:20;;;;;;;37.22;21.50;;;;;;;9.41;100.00;100063.16;5010524;28;20034;-72
2023/04/17 10:07:46;;;;;;;37.85;24.90;;;;;;;9.10;100.00;99958.50;5017255;28;20222;-72
2023/04/17 10:10:29;;;;;;;37.72;23.67;;;;;;;9.32;100.00;100073.66;5008725;28;20145;-72
2023/04/17 10:12:57;;;;;;;33.97;23.63;;;;;;;9.39;100.00;100043.97;5006459;28;20266;-72
2023/04/17 10:15:24;;;;;;;42.92;24.77;;;;;;;9.37;100.00;100072.78;5008689;28;20042;-72
2023/04/17 10:17:55;;;;;;;41.08;27.05;;;;;;;8.64;100.00;99969.88;5008364;28;20509;-72
2023/04/17 10:20:23;;;;;;;32.50;25.40;;;;;;;9.16;100.00;100047.50;4990468;28;20042;-75
2023/04/17 10:23:00;;;;;;;38.40;21.92;;;;;;;9.13;100.00;100057.97;5005862;28;20529;-71
2023/04/17 10:25:29;;;;;;;39.90;23.00;;;;;;;9.20;100.00;100045.72;5007861;28;20042;-74
2023/04/17 10:27:57;;;;;;;40.45;24.00;;;;;;;8.39;100.00;99921.84;5008540;28;20100;-74
2023/04/17 10:30:25;;;;;;;32.20;22.55;;;;;;;8.92;100.00;100018.69;5006704;28;20049;-73
2023/04/17 10:33:12;;;;;;;28.08;22.50;;;;;;;9.00;100.00;100050.97;5008236;28;20030;-72
2023/04/17 10:35:38;;;;;;;35.47;22.02;;;;;;;9.02;100.00;100049.25;5009378;28;20486;-73
2023/04/17 10:38:07;;;;;;;31.13;21.85;;;;;;;8.95;100.00;100016.09;5008884;28;20061;-73
2023/04/17 10:40:34;;;;;;;28.75;22.13;;;;;;;8.31;100.00;99941.91;5007809;28;20061;-73
2023/04/17 10:43:10;;;;;;;30.35;21.42;;;;;;;9.12;100.00;100042.25;5008136;28;20060;-73
2023/04/17 10:46:08;;;;;;;31.33;18.73;;;;;;;9.21;100.00;100047.50;5008127;28;20054;-73
2023/04/17 10:48:36;;;;;;;24.75;17.48;;;;;;;8.57;100.00;99935.84;5002554;28;20123;-73
2023/04/17 10:51:27;;;;;;;29.60;21.48;;;;;;;9.18;100.00;100044.88;4987378;28;20343;-73
2023/04/17 10:53:53;;;;;;;33.90;17.63;;;;;;;9.21;100.00;100037.03;5007702;28;20076;-73
2023/04/17 10:56:25;;;;;;;25.77;17.75;;;;;;;9.05;100.00;100046.63;5007166;28;20034;-72
2023/04/17 10:58:58;;;;;;;33.40;18.75;;;;;;;9.08;100.00;100030.91;5007787;28;20099;-73
2023/04/17 11:01:45;;;;;;;33.23;19.67;;;;;;;8.76;100.00;100018.69;5007613;28;20383;-73
2023/04/17 11:04:21;;;;;;;29.42;17.58;;;;;;;9.11;100.00;100036.16;5000086;28;20050;-73
2023/04/17 11:06:47;;;;;;;27.38;17.38;;;;;;;8.81;100.00;99982.94;5018637;28;20154;-73
2023/04/17 11:09:14;;;;;;;33.63;17.63;;;;;;;8.09;100.00;99907.00;5005531;28;20123;-73
2023/04/17 11:11:42;;;;;;;24.45;17.83;;;;;;;8.27;100.00;99911.41;5008039;28;20042;-73
2023/04/17 11:14:09;;;;;;;27.95;18.17;;;;;;;8.87;100.00;100023.91;5007372;28;20137;-72